Time;durP1;ratioP1;P1;durP2;ratioP2;P2;SDS_P1;SDS_P2;PMS_P1;PMS_P2;Temp;Humidity;BMP_temperature;BMP_pressure;BME280_temperature;BME280_humidity;BME280_pressure;Samples;Min_cycle;Max_cycle;Signal;HPM_P1;HPM_P2
2021/10/13 00:01:24;;;;;;;;;;;11.20;99.90;;;;;;4977075;28;19913;-74
2021/10/13 00:03:50;;;;;;;;;;;11.20;99.90;;;;;;4976772;28;19906;-72
2021/10/13 00:06:15;;;;;;;;;;;11.00;99.90;;;;;;4977017;28;19913;-73
2021/10/13 00:08:41;;;;;;;;;;;11.00;99.90;;;;;;4976671;28;19949;-75
2021/10/13 00:11:07;;;;;;;;;;;10.90;99.90;;;;;;4976898;28;19913;-72
2021/10/13 00:13:32;;;;;;;;;;;10.90;99.90;;;;;;4976491;28;20382;-71
2021/10/13 00:15:58;;;;;;;;;;;10.90;99.90;;;;;;4977072;28;19906;-74
2021/10/13 00:18:24;;;;;;;;;;;10.70;99.90;;;;;;4976490;28;19906;-75
2021/10/13 00:20:49;;;;;;;;;;;10.60;99.90;;;;;;4976726;28;19906;-74
2021/10/13 00:23:15;;;;;;;;;;;10.60;99.90;;;;;;4976328;28;19906;-75
2021/10/13 00:25:40;;;;;;;;;;;10.50;99.90;;;;;;4976274;28;19913;-73
2021/10/13 00:28:06;;;;;;;;;;;10.50;99.90;;;;;;4976339;28;19906;-72
2021/10/13 00:30:31;;;;;;;;;;;10.60;99.90;;;;;;4976566;28;19906;-74
2021/10/13 00:32:57;;;;;;;;;;;10.70;99.90;;;;;;4976197;28;19956;-71
2021/10/13 00:35:23;;;;;;;;;;;10.70;99.90;;;;;;4975777;28;20281;-71
2021/10/13 00:37:48;;;;;;;;;;;10.80;99.90;;;;;;4976113;28;20318;-73
2021/10/13 00:40:14;;;;;;;;;;;10.70;99.90;;;;;;4976352;28;20307;-75
2021/10/13 00:42:39;;;;;;;;;;;10.70;99.90;;;;;;4976052;28;19906;-71
2021/10/13 00:45:07;;;;;;;;;;;10.80;99.90;;;;;;4975969;28;19906;-72
2021/10/13 00:47:36;;;;;;;;;;;10.80;99.90;;;;;;4975942;28;19960;-75
2021/10/13 00:50:08;;;;;;;;;;;10.90;99.90;;;;;;4976427;28;20355;-73
2021/10/13 00:52:33;;;;;;;;;;;10.90;99.90;;;;;;4975790;28;20412;-74
2021/10/13 00:55:00;;;;;;;;;;;10.70;99.90;;;;;;4976329;28;20004;-73
2021/10/13 00:57:26;;;;;;;;;;;10.70;99.90;;;;;;4975779;28;19906;-71
2021/10/13 00:59:51;;;;;;;;;;;10.70;99.90;;;;;;4975715;28;20327;-73
2021/10/13 01:02:23;;;;;;;;;;;10.60;99.90;;;;;;4976030;28;19906;-70
2021/10/13 01:05:07;;;;;;;;;;;10.60;99.90;;;;;;4975736;28;20009;-73
2021/10/13 01:07:32;;;;;;;;;;;10.50;99.90;;;;;;4976208;28;19917;-75
2021/10/13 01:10:03;;;;;;;;;;;10.50;99.90;;;;;;4975569;28;19906;-75
2021/10/13 01:12:52;;;;;;;;;;;10.50;99.90;;;;;;4975880;28;20329;-72
2021/10/13 01:15:25;;;;;;;;;;;10.50;99.90;;;;;;4975471;28;19910;-74
2021/10/13 01:18:10;;;;;;;;;;;10.30;99.90;;;;;;4975766;28;20413;-72
2021/10/13 01:20:44;;;;;;;;;;;10.30;99.90;;;;;;4975391;28;20362;-75
2021/10/13 01:23:28;;;;;;;;;;;10.20;99.90;;;;;;4975393;28;19906;-72
2021/10/13 01:26:02;;;;;;;;;;;10.10;99.90;;;;;;4975336;28;19959;-73
2021/10/13 01:28:32;;;;;;;;;;;10.20;99.90;;;;;;4975568;28;19956;-75
2021/10/13 01:31:00;;;;;;;;;;;10.10;99.90;;;;;;4974010;28;20283;-73
2021/10/13 01:33:35;;;;;;;;;;;10.20;99.90;;;;;;4975170;28;19949;-75
2021/10/13 01:36:01;;;;;;;;;;;10.20;99.90;;;;;;4975215;28;19913;-72
2021/10/13 01:38:28;;;;;;;;;;;10.00;99.90;;;;;;4975196;28;19956;-72
2021/10/13 01:40:56;;;;;;;;;;;9.90;99.90;;;;;;4975811;28;19917;-72
2021/10/13 01:43:23;;;;;;;;;;;9.90;99.90;;;;;;4975116;28;19906;-71
2021/10/13 01:45:50;;;;;;;;;;;9.90;99.90;;;;;;4975357;28;19913;-72
2021/10/13 01:48:16;;;;;;;;;;;10.10;99.90;;;;;;4975049;28;19997;-74
2021/10/13 01:50:44;;;;;;;;;;;10.10;99.90;;;;;;4975581;28;20381;-71
2021/10/13 01:53:10;;;;;;;;;;;10.00;99.90;;;;;;4974970;28;19906;-75
2021/10/13 01:55:36;;;;;;;;;;;10.00;99.90;;;;;;4974902;28;19916;-71
2021/10/13 01:58:02;;;;;;;;;;;10.00;99.90;;;;;;4975480;28;19989;-74
2021/10/13 02:00:28;;;;;;;;;;;10.00;99.90;;;;;;4974879;28;19906;-71
2021/10/13 02:02:54;;;;;;;;;;;9.90;99.90;;;;;;4975168;28;20421;-73
2021/10/13 02:05:20;;;;;;;;;;;10.00;99.90;;;;;;4974892;28;19913;-73
2021/10/13 02:07:47;;;;;;;;;;;10.00;99.90;;;;;;4975146;28;19906;-73
2021/10/13 02:10:14;;;;;;;;;;;9.90;99.90;;;;;;4974828;28;19910;-72
2021/10/13 02:12:42;;;;;;;;;;;9.90;99.90;;;;;;4974776;28;19910;-71
2021/10/13 02:15:08;;;;;;;;;;;9.90;99.90;;;;;;4974725;28;19938;-76
2021/10/13 02:17:36;;;;;;;;;;;9.90;99.90;;;;;;4974725;28;19926;-71
2021/10/13 02:20:02;;;;;;;;;;;9.80;99.90;;;;;;4974952;28;19906;-71
2021/10/13 02:22:28;;;;;;;;;;;9.70;99.90;;;;;;4974620;28;19906;-73
2021/10/13 02:24:54;;;;;;;;;;;9.80;99.90;;;;;;4974696;28;19917;-73
2021/10/13 02:27:19;;;;;;;;;;;9.70;99.90;;;;;;4974937;28;20277;-72
2021/10/13 02:29:45;;;;;;;;;;;9.80;99.90;;;;;;4974645;28;20000;-74
2021/10/13 02:32:12;;;;;;;;;;;9.80;99.90;;;;;;4975178;28;19912;-70
2021/10/13 02:34:38;;;;;;;;;;;9.70;99.90;;;;;;4973265;28;19921;-72
2021/10/13 02:37:04;;;;;;;;;;;9.70;99.90;;;;;;4973309;28;20330;-73
2021/10/13 02:39:30;;;;;;;;;;;9.60;99.90;;;;;;4974558;28;19906;-71
2021/10/13 02:41:55;;;;;;;;;;;9.60;99.90;;;;;;4974830;28;19910;-71
2021/10/13 02:44:21;;;;;;;;;;;9.80;99.90;;;;;;4974522;28;19929;-74
2021/10/13 02:47:01;;;;;;;;;;;9.70;99.90;;;;;;4974561;28;19910;-75
2021/10/13 02:49:29;;;;;;;;;;;9.70;99.90;;;;;;4974822;28;19906;-72
2021/10/13 02:52:12;;;;;;;;;;;9.70;99.90;;;;;;4974462;28;19994;-75
2021/10/13 02:54:44;;;;;;;;;;;9.80;99.90;;;;;;4974370;28;19910;-72
2021/10/13 02:57:10;;;;;;;;;;;9.70;99.90;;;;;;4974762;28;19906;-71
2021/10/13 02:59:41;;;;;;;;;;;9.80;99.90;;;;;;4977175;28;19906;-70
2021/10/13 03:02:10;;;;;;;;;;;9.90;99.90;;;;;;4978257;28;19934;-72
2021/10/13 03:04:38;;;;;;;;;;;9.80;99.90;;;;;;4977896;28;19997;-74
2021/10/13 03:07:10;;;;;;;;;;;9.70;99.90;;;;;;4978144;28;19906;-75
2021/10/13 03:09:37;;;;;;;;;;;9.40;99.90;;;;;;4977810;28;19948;-71
2021/10/13 03:12:05;;;;;;;;;;;9.50;99.90;;;;;;4978015;28;19910;-70
2021/10/13 03:14:30;;;;;;;;;;;9.60;99.90;;;;;;4977645;28;20350;-72
2021/10/13 03:16:56;;;;;;;;;;;9.40;99.90;;;;;;4977693;28;19939;-73
2021/10/13 03:19:25;;;;;;;;;;;9.40;99.90;;;;;;4977543;28;20440;-70
2021/10/13 03:21:51;;;;;;;;;;;9.40;99.90;;;;;;4977773;28;19945;-72
2021/10/13 03:24:17;;;;;;;;;;;9.50;99.90;;;;;;4977818;28;19906;-75
2021/10/13 03:26:46;;;;;;;;;;;9.50;99.90;;;;;;4977131;28;19918;-72
2021/10/13 03:29:12;;;;;;;;;;;9.50;99.90;;;;;;4978036;28;20322;-71
2021/10/13 03:31:38;;;;;;;;;;;9.50;99.90;;;;;;4977982;28;19910;-71
2021/10/13 03:34:03;;;;;;;;;;;9.50;99.90;;;;;;4977300;28;19917;-71
2021/10/13 03:36:36;;;;;;;;;;;9.60;99.90;;;;;;4977340;28;20286;-73
2021/10/13 03:39:02;;;;;;;;;;;9.60;99.90;;;;;;4977861;28;19906;-71
2021/10/13 03:41:28;;;;;;;;;;;9.80;99.90;;;;;;4977467;28;19956;-72
2021/10/13 03:43:53;;;;;;;;;;;9.70;99.90;;;;;;4977745;28;19906;-72
2021/10/13 03:46:19;;;;;;;;;;;9.50;99.90;;;;;;4977420;28;19906;-72
2021/10/13 03:48:47;;;;;;;;;;;9.40;99.90;;;;;;4977689;28;19913;-75
2021/10/13 03:51:13;;;;;;;;;;;9.50;99.90;;;;;;4977024;28;19996;-75
2021/10/13 03:53:38;;;;;;;;;;;9.30;99.90;;;;;;4977473;28;20347;-71
2021/10/13 03:56:04;;;;;;;;;;;9.30;99.90;;;;;;4977262;28;19992;-72
2021/10/13 03:58:29;;;;;;;;;;;9.40;99.90;;;;;;4976887;28;19913;-72
2021/10/13 04:00:55;;;;;;;;;;;9.50;99.90;;;;;;4977381;28;19906;-72
2021/10/13 04:03:20;;;;;;;;;;;9.50;99.90;;;;;;4976856;28;19906;-72
2021/10/13 04:05:47;;;;;;;;;;;9.50;99.90;;;;;;4977038;28;20363;-72
2021/10/13 04:08:13;;;;;;;;;;;9.40;99.90;;;;;;4976713;28;19997;-74
2021/10/13 04:10:39;;;;;;;;;;;9.30;99.90;;;;;;4975969;28;19950;-73
2021/10/13 04:13:04;;;;;;;;;;;9.10;99.90;;;;;;4976629;28;19996;-73
2021/10/13 04:15:30;;;;;;;;;;;9.00;99.90;;;;;;4976769;28;20278;-71
2021/10/13 04:17:55;;;;;;;;;;;9.00;99.90;;;;;;4976539;28;19953;-72
2021/10/13 04:20:21;;;;;;;;;;;9.10;99.90;;;;;;4976747;28;19905;-75
2021/10/13 04:22:46;;;;;;;;;;;9.20;99.90;;;;;;4976350;28;19906;-73
2021/10/13 04:25:12;;;;;;;;;;;9.10;99.90;;;;;;4976408;28;19928;-75
2021/10/13 04:27:38;;;;;;;;;;;9.10;99.90;;;;;;4976358;28;19932;-75
2021/10/13 04:30:04;;;;;;;;;;;9.20;99.90;;;;;;4976323;28;19912;-72
2021/10/13 04:32:30;;;;;;;;;;;9.20;99.90;;;;;;4976199;28;19906;-73
2021/10/13 04:34:55;;;;;;;;;;;9.20;99.90;;;;;;4976155;28;19921;-71
2021/10/13 04:37:21;;;;;;;;;;;9.20;99.90;;;;;;4976426;28;19921;-73
2021/10/13 04:39:46;;;;;;;;;;;9.10;99.90;;;;;;4976125;28;19906;-74
2021/10/13 04:42:12;;;;;;;;;;;9.10;99.90;;;;;;4976092;28;19906;-74
2021/10/13 04:44:38;;;;;;;;;;;9.00;99.90;;;;;;4976295;28;19913;-72
2021/10/13 04:47:04;;;;;;;;;;;9.10;99.90;;;;;;4976014;28;19910;-73
2021/10/13 04:49:30;;;;;;;;;;;9.10;99.90;;;;;;4976249;28;19985;-70
2021/10/13 04:51:56;;;;;;;;;;;9.10;99.90;;;;;;4974637;28;19934;-71
2021/10/13 04:54:22;;;;;;;;;;;9.00;99.90;;;;;;4975777;28;19917;-73
2021/10/13 04:56:48;;;;;;;;;;;8.90;99.90;;;;;;4975850;28;19906;-73
2021/10/13 04:59:14;;;;;;;;;;;8.90;99.90;;;;;;4976357;28;19939;-72
2021/10/13 05:01:39;;;;;;;;;;;9.00;99.90;;;;;;4975752;28;20008;-71
2021/10/13 05:04:05;;;;;;;;;;;9.10;99.90;;;;;;4975981;28;19946;-74
2021/10/13 05:06:30;;;;;;;;;;;9.00;99.90;;;;;;4975646;28;19975;-71
2021/10/13 05:08:56;;;;;;;;;;;8.90;99.90;;;;;;4976175;28;19906;-71
2021/10/13 05:11:21;;;;;;;;;;;8.90;99.90;;;;;;4975578;28;19913;-69
2021/10/13 05:13:47;;;;;;;;;;;8.90;99.90;;;;;;4975474;28;20286;-75
2021/10/13 05:16:12;;;;;;;;;;;8.90;99.90;;;;;;4975757;28;19949;-72
2021/10/13 05:18:38;;;;;;;;;;;8.80;99.90;;;;;;4975481;28;19961;-72
2021/10/13 05:21:03;;;;;;;;;;;8.80;99.90;;;;;;4975176;28;19906;-74
2021/10/13 05:23:29;;;;;;;;;;;8.90;99.90;;;;;;4975191;28;19997;-72
2021/10/13 05:25:54;;;;;;;;;;;9.10;99.90;;;;;;4975163;28;19918;-72
2021/10/13 05:28:20;;;;;;;;;;;9.10;99.90;;;;;;4975596;28;19910;-74
2021/10/13 05:30:46;;;;;;;;;;;9.10;99.90;;;;;;4975275;28;20416;-70
2021/10/13 05:33:11;;;;;;;;;;;9.00;99.90;;;;;;4975247;28;19906;-76
2021/10/13 05:35:37;;;;;;;;;;;9.00;99.90;;;;;;4975411;28;20362;-72
2021/10/13 05:38:02;;;;;;;;;;;9.10;99.90;;;;;;4975172;28;19917;-70
2021/10/13 05:40:28;;;;;;;;;;;9.00;99.90;;;;;;4975145;28;19914;-73
2021/10/13 05:42:53;;;;;;;;;;;9.00;99.90;;;;;;4975102;28;20057;-74
2021/10/13 05:45:19;;;;;;;;;;;8.80;99.90;;;;;;4975338;28;19992;-71
2021/10/13 05:47:44;;;;;;;;;;;8.80;99.90;;;;;;4975054;28;19906;-76
2021/10/13 05:50:10;;;;;;;;;;;8.80;99.90;;;;;;4975032;28;20355;-71
2021/10/13 05:52:36;;;;;;;;;;;8.90;99.90;;;;;;4975036;28;19945;-71
2021/10/13 05:55:01;;;;;;;;;;;8.80;99.90;;;;;;4974896;28;19953;-71
2021/10/13 05:57:27;;;;;;;;;;;8.90;99.90;;;;;;4975253;28;19906;-74
2021/10/13 05:59:57;;;;;;;;;;;8.80;99.90;;;;;;4974902;28;20441;-72
2021/10/13 06:02:23;;;;;;;;;;;8.80;99.90;;;;;;4975261;28;19914;-71
2021/10/13 06:04:48;;;;;;;;;;;8.80;99.90;;;;;;4974882;28;19906;-74
2021/10/13 06:07:14;;;;;;;;;;;8.70;99.90;;;;;;4975172;28;19906;-71
2021/10/13 06:09:39;;;;;;;;;;;8.70;99.90;;;;;;4974837;28;19909;-73
2021/10/13 06:12:05;;;;;;;;;;;8.60;99.90;;;;;;4974821;28;19907;-75
2021/10/13 06:14:31;;;;;;;;;;;8.60;99.90;;;;;;4974777;28;19917;-74
2021/10/13 06:16:56;;;;;;;;;;;8.60;99.90;;;;;;4974780;28;19906;-74
2021/10/13 06:19:22;;;;;;;;;;;8.60;99.90;;;;;;4975009;28;19906;-74
2021/10/13 06:21:47;;;;;;;;;;;8.70;99.90;;;;;;4974653;28;19913;-74
2021/10/13 06:24:13;;;;;;;;;;;8.70;99.90;;;;;;4974707;28;19910;-71
2021/10/13 06:26:38;;;;;;;;;;;8.60;99.90;;;;;;4974288;28;19914;-71
2021/10/13 06:29:04;;;;;;;;;;;8.70;99.90;;;;;;4974649;28;19906;-73
2021/10/13 06:31:30;;;;;;;;;;;8.70;99.90;;;;;;4974937;28;19913;-75
2021/10/13 06:33:55;;;;;;;;;;;8.60;99.90;;;;;;4976476;28;20285;-72
2021/10/13 06:36:21;;;;;;;;;;;8.60;99.90;;;;;;4978426;28;20278;-72
2021/10/13 06:38:47;;;;;;;;;;;8.70;99.90;;;;;;4978929;28;19914;-72
2021/10/13 06:41:12;;;;;;;;;;;8.80;99.90;;;;;;4978634;28;19910;-73
2021/10/13 06:43:38;;;;;;;;;;;8.80;99.90;;;;;;4978298;28;19913;-74
2021/10/13 06:46:04;;;;;;;;;;;8.70;99.90;;;;;;4978809;28;20354;-74
2021/10/13 06:48:29;;;;;;;;;;;8.70;99.90;;;;;;4978213;28;19906;-72
2021/10/13 06:50:55;;;;;;;;;;;8.70;99.90;;;;;;4978467;28;19905;-75
2021/10/13 06:53:20;;;;;;;;;;;8.70;99.90;;;;;;4978130;28;19929;-70
2021/10/13 06:55:46;;;;;;;;;;;8.70;99.90;;;;;;4978274;28;19910;-73
2021/10/13 06:58:12;;;;;;;;;;;8.90;99.90;;;;;;4978049;28;19922;-73
2021/10/13 07:00:37;;;;;;;;;;;8.80;99.90;;;;;;4978576;28;19913;-73
2021/10/13 07:03:03;;;;;;;;;;;8.80;99.90;;;;;;4977949;28;20366;-74
2021/10/13 07:05:29;;;;;;;;;;;8.90;99.90;;;;;;4978183;28;19933;-73
2021/10/13 07:07:54;;;;;;;;;;;9.00;99.90;;;;;;4977870;28;20376;-72
2021/10/13 07:10:20;;;;;;;;;;;9.00;99.90;;;;;;4977766;28;19913;-72
2021/10/13 07:12:46;;;;;;;;;;;8.90;99.90;;;;;;4977772;28;20001;-74
2021/10/13 07:15:12;;;;;;;;;;;8.90;99.90;;;;;;4977912;28;20005;-74
2021/10/13 07:17:38;;;;;;;;;;;8.90;99.90;;;;;;4977676;28;19949;-72
2021/10/13 07:20:06;;;;;;;;;;;8.90;99.90;;;;;;4977860;28;19910;-74
2021/10/13 07:22:32;;;;;;;;;;;9.00;99.90;;;;;;4977482;28;20365;-74
2021/10/13 07:24:58;;;;;;;;;;;9.20;99.90;;;;;;4977577;28;20398;-73
2021/10/13 07:27:24;;;;;;;;;;;9.10;99.90;;;;;;4977500;28;19914;-74
2021/10/13 07:30:02;;;;;;;;;;;9.10;99.90;;;;;;4977985;28;20355;-74
2021/10/13 07:32:34;;;;;;;;;;;9.00;99.90;;;;;;4977712;28;19916;-76
2021/10/13 07:35:00;;;;;;;;;;;9.10;99.90;;;;;;4977577;28;19965;-76
2021/10/13 07:37:26;;;;;;;;;;;9.10;99.90;;;;;;4977309;28;19910;-72
2021/10/13 07:39:53;;;;;;;;;;;9.30;99.90;;;;;;4977582;28;19906;-74
2021/10/13 07:42:18;;;;;;;;;;;9.40;99.90;;;;;;4977225;28;19906;-72
2021/10/13 07:44:45;;;;;;;;;;;9.40;99.90;;;;;;4977107;28;20305;-72
2021/10/13 07:47:10;;;;;;;;;;;9.50;99.90;;;;;;4977148;28;19957;-71
2021/10/13 07:49:36;;;;;;;;;;;9.60;99.90;;;;;;4977132;28;19906;-72
2021/10/13 07:52:02;;;;;;;;;;;9.60;99.90;;;;;;4977046;28;20319;-72
2021/10/13 07:54:27;;;;;;;;;;;9.70;99.90;;;;;;4976933;28;19910;-72
2021/10/13 07:56:53;;;;;;;;;;;9.80;99.90;;;;;;4976902;28;19910;-73
2021/10/13 07:59:18;;;;;;;;;;;9.70;99.90;;;;;;4977178;28;20278;-70
2021/10/13 08:01:44;;;;;;;;;;;9.90;99.90;;;;;;4976867;28;19913;-76
2021/10/13 08:04:09;;;;;;;;;;;10.10;99.90;;;;;;4977126;28;19906;-74
2021/10/13 08:06:35;;;;;;;;;;;10.10;99.90;;;;;;4976821;28;19957;-73
2021/10/13 08:09:00;;;;;;;;;;;10.20;99.90;;;;;;4977040;28;19906;-76
2021/10/13 08:11:26;;;;;;;;;;;10.30;99.90;;;;;;4976686;28;20374;-72
2021/10/13 08:13:52;;;;;;;;;;;10.50;99.90;;;;;;4976666;28;19942;-74
2021/10/13 08:16:17;;;;;;;;;;;10.70;99.90;;;;;;4976585;28;19938;-71
2021/10/13 08:18:43;;;;;;;;;;;11.00;99.90;;;;;;4976547;28;20370;-73
2021/10/13 08:21:08;;;;;;;;;;;11.20;99.90;;;;;;4977070;28;19906;-73
2021/10/13 08:23:34;;;;;;;;;;;11.60;99.90;;;;;;4975093;28;20393;-73
2021/10/13 08:26:00;;;;;;;;;;;12.00;99.90;;;;;;4975988;28;19922;-74
2021/10/13 08:28:26;;;;;;;;;;;12.40;99.90;;;;;;4976378;28;20382;-71
2021/10/13 08:30:51;;;;;;;;;;;12.80;99.90;;;;;;4976351;28;19906;-72
2021/10/13 08:33:17;;;;;;;;;;;13.10;99.90;;;;;;4976297;28;19928;-74
2021/10/13 08:35:43;;;;;;;;;;;13.10;99.90;;;;;;4976739;28;20390;-74
2021/10/13 08:38:08;;;;;;;;;;;13.30;99.90;;;;;;4976212;28;19905;-74
2021/10/13 08:40:34;;;;;;;;;;;13.30;99.90;;;;;;4976172;28;19953;-72
2021/10/13 08:43:01;;;;;;;;;;;13.70;99.90;;;;;;4976104;28;19912;-72
2021/10/13 08:45:27;;;;;;;;;;;13.90;99.90;;;;;;4976045;28;19906;-74
2021/10/13 08:47:53;;;;;;;;;;;14.20;99.90;;;;;;4976024;28;20021;-74
2021/10/13 08:50:20;;;;;;;;;;;14.50;99.90;;;;;;4975954;28;20375;-75
2021/10/13 08:52:45;;;;;;;;;;;14.70;99.90;;;;;;4976198;28;20315;-73
2021/10/13 08:55:12;;;;;;;;;;;15.00;99.90;;;;;;4975819;28;19961;-73
2021/10/13 08:57:38;;;;;;;;;;;15.40;99.90;;;;;;4975895;28;19989;-72
2021/10/13 09:00:04;;;;;;;;;;;15.60;99.90;;;;;;4975812;28;19945;-72
2021/10/13 09:02:37;;;;;;;;;;;15.70;99.90;;;;;;4975680;28;19913;-74
2021/10/13 09:05:02;;;;;;;;;;;16.20;99.90;;;;;;4975987;28;19906;-72
2021/10/13 09:07:28;;;;;;;;;;;16.30;99.90;;;;;;4975945;28;20317;-75
2021/10/13 09:09:54;;;;;;;;;;;16.40;99.90;;;;;;4976455;28;19914;-72
2021/10/13 09:12:29;;;;;;;;;;;16.50;99.90;;;;;;4975574;28;19906;-71
2021/10/13 09:15:02;;;;;;;;;;;16.80;99.90;;;;;;4975485;28;19945;-75
2021/10/13 09:17:28;;;;;;;;;;;17.00;99.90;;;;;;4975806;28;19966;-76
2021/10/13 09:19:53;;;;;;;;;;;17.20;99.90;;;;;;4975479;28;19906;-75
2021/10/13 09:22:19;;;;;;;;;;;17.20;99.90;;;;;;4975583;28;19906;-74
2021/10/13 09:24:47;;;;;;;;;;;17.40;99.90;;;;;;4975168;28;20313;-72
2021/10/13 09:27:24;;;;;;;;;;;17.50;99.90;;;;;;4975673;28;19902;-76
2021/10/13 09:29:51;;;;;;;;;;;17.80;99.90;;;;;;4975308;28;19910;-76
2021/10/13 09:32:22;;;;;;;;;;;17.80;99.90;;;;;;4975536;28;19956;-72
2021/10/13 09:34:50;;;;;;;;;;;17.80;99.90;;;;;;4975179;28;19918;-74
2021/10/13 09:37:16;;;;;;;;;;;17.70;99.90;;;;;;4975219;28;19957;-76
2021/10/13 09:39:53;;;;;;;;;;;18.00;99.90;;;;;;4975684;28;19943;-73
2021/10/13 09:42:19;;;;;;;;;;;18.00;99.90;;;;;;4975178;28;20326;-73
2021/10/13 09:44:55;;;;;;;;;;;18.10;99.90;;;;;;4975104;28;19961;-77
2021/10/13 09:47:28;;;;;;;;;;;18.00;99.90;;;;;;4975058;28;19906;-73
2021/10/13 09:49:53;;;;;;;;;;;18.10;99.90;;;;;;4975356;28;19910;-76
2021/10/13 09:52:23;;;;;;;;;;;18.20;99.90;;;;;;4973705;28;20377;-72
2021/10/13 09:54:57;;;;;;;;;;;17.90;99.90;;;;;;4974894;28;19914;-73
2021/10/13 09:57:24;;;;;;;;;;;17.90;99.90;;;;;;4975318;28;20033;-74
2021/10/13 10:00:13;;;;;;;;;;;18.10;99.90;;;;;;4975209;28;19960;-75
2021/10/13 10:02:38;;;;;;;;;;;18.00;99.90;;;;;;4975244;28;19992;-73
2021/10/13 10:05:06;;;;;;;;;;;17.60;99.90;;;;;;4974887;28;19966;-76
2021/10/13 10:07:32;;;;;;;;;;;17.50;99.90;;;;;;4975114;28;19913;-75
2021/10/13 10:10:07;;;;;;;;;;;17.50;99.90;;;;;;4977365;28;20278;-72
2021/10/13 10:13:05;;;;;;;;;;;17.30;99.90;;;;;;4978901;28;20035;-73
2021/10/13 10:15:32;;;;;;;;;;;17.10;99.90;;;;;;4956849;28;19910;-75
2021/10/13 10:17:58;;;;;;;;;;;17.20;99.90;;;;;;4978773;28;19906;-72
2021/10/13 10:20:36;;;;;;;;;;;17.30;99.90;;;;;;4978956;28;19960;-74
2021/10/13 10:23:22;;;;;;;;;;;17.20;99.90;;;;;;4978706;28;19906;-76
2021/10/13 10:25:47;;;;;;;;;;;17.20;99.90;;;;;;4978576;28;19914;-72
2021/10/13 10:28:31;;;;;;;;;;;17.10;99.90;;;;;;4978624;28;19969;-73
2021/10/13 10:31:15;;;;;;;;;;;17.20;99.90;;;;;;4979118;28;19906;-73
2021/10/13 10:33:50;;;;;;;;;;;17.30;99.90;;;;;;4978527;28;20362;-73
2021/10/13 10:36:15;;;;;;;;;;;17.20;99.90;;;;;;4979033;28;19949;-74
2021/10/13 10:38:48;;;;;;;;;;;17.00;99.90;;;;;;4978689;28;19906;-76
2021/10/13 10:41:13;;;;;;;;;;;16.90;99.90;;;;;;4978298;28;19914;-71
2021/10/13 10:43:39;;;;;;;;;;;16.80;99.90;;;;;;4978582;28;19956;-76
2021/10/13 10:46:04;;;;;;;;;;;16.90;99.90;;;;;;4978241;28;19957;-71
2021/10/13 10:48:43;;;;;;;;;;;16.90;99.90;;;;;;4978236;28;19906;-73
2021/10/13 10:51:09;;;;;;;;;;;16.80;99.90;;;;;;4978233;28;19913;-77
2021/10/13 10:53:43;;;;;;;;;;;16.80;99.90;;;;;;4978437;28;19960;-73
2021/10/13 10:56:09;;;;;;;;;;;16.80;99.90;;;;;;4978368;28;19910;-75
2021/10/13 10:58:35;;;;;;;;;;;16.90;99.90;;;;;;4978058;28;19906;-73
2021/10/13 11:01:27;;;;;;;;;;;17.00;99.90;;;;;;4978001;28;20281;-72
2021/10/13 11:03:52;;;;;;;;;;;17.10;99.90;;;;;;4975863;28;19913;-72
2021/10/13 11:06:18;;;;;;;;;;;17.30;99.90;;;;;;4978485;28;19907;-77
2021/10/13 11:08:54;;;;;;;;;;;17.40;99.90;;;;;;4977893;28;19957;-74
2021/10/13 11:11:20;;;;;;;;;;;17.50;99.90;;;;;;4977773;28;20362;-72
2021/10/13 11:13:55;;;;;;;;;;;17.50;99.90;;;;;;4977713;28;19945;-74
2021/10/13 11:16:20;;;;;;;;;;;17.40;99.90;;;;;;4977759;28;19906;-72
2021/10/13 11:18:46;;;;;;;;;;;17.30;99.90;;;;;;4977498;28;20327;-77
2021/10/13 11:21:11;;;;;;;;;;;17.30;99.90;;;;;;4977861;28;20270;-71
2021/10/13 11:23:37;;;;;;;;;;;17.30;99.90;;;;;;4977550;28;19913;-76
2021/10/13 11:26:03;;;;;;;;;;;17.30;99.90;;;;;;4977430;28;19922;-75
2021/10/13 11:28:38;;;;;;;;;;;17.20;99.90;;;;;;4977497;28;19906;-73
2021/10/13 11:31:06;;;;;;;;;;;17.30;99.90;;;;;;4976192;28;19906;-74
2021/10/13 11:33:31;;;;;;;;;;;17.40;99.90;;;;;;4977475;28;20370;-72
2021/10/13 11:36:04;;;;;;;;;;;17.30;99.90;;;;;;4977331;28;19914;-73
2021/10/13 11:38:34;;;;;;;;;;;17.20;99.90;;;;;;4977340;28;19913;-76
2021/10/13 11:41:08;;;;;;;;;;;17.10;99.90;;;;;;4977593;28;20400;-73
2021/10/13 11:43:34;;;;;;;;;;;17.00;99.90;;;;;;4977236;28;19910;-74
2021/10/13 11:45:59;;;;;;;;;;;16.90;99.90;;;;;;4977760;28;19906;-72
2021/10/13 11:48:27;;;;;;;;;;;17.00;99.90;;;;;;4977140;28;19953;-72
2021/10/13 11:50:53;;;;;;;;;;;17.10;99.90;;;;;;4977403;28;20318;-73
2021/10/13 11:53:19;;;;;;;;;;;17.20;99.90;;;;;;4977057;28;19906;-76
2021/10/13 11:55:44;;;;;;;;;;;17.00;99.90;;;;;;4977491;28;19910;-72
2021/10/13 11:58:10;;;;;;;;;;;17.10;99.90;;;;;;4976992;28;20430;-72
2021/10/13 12:00:44;;;;;;;;;;;17.10;99.90;;;;;;4977203;28;19907;-73
2021/10/13 12:03:11;;;;;;;;;;;17.10;99.90;;;;;;4977225;28;19997;-73
2021/10/13 12:05:37;;;;;;;;;;;17.10;99.90;;;;;;4977113;28;19906;-77
2021/10/13 12:08:13;;;;;;;;;;;17.00;99.90;;;;;;4976829;28;19910;-72
2021/10/13 12:10:47;;;;;;;;;;;17.00;99.90;;;;;;4977383;28;20351;-76
2021/10/13 12:13:14;;;;;;;;;;;16.90;99.90;;;;;;4976757;28;19957;-75
2021/10/13 12:15:40;;;;;;;;;;;16.90;99.90;;;;;;4976910;28;19996;-73
2021/10/13 12:18:14;;;;;;;;;;;17.00;99.90;;;;;;4976685;28;19910;-73
2021/10/13 12:20:40;;;;;;;;;;;17.10;99.90;;;;;;4976592;28;19906;-73
2021/10/13 12:23:09;;;;;;;;;;;17.10;99.90;;;;;;4976448;28;19906;-71
2021/10/13 12:25:35;;;;;;;;;;;17.10;99.90;;;;;;4976268;28;19921;-74
2021/10/13 12:28:00;;;;;;;;;;;17.10;99.90;;;;;;4976415;28;19906;-75
2021/10/13 12:30:34;;;;;;;;;;;17.00;99.90;;;;;;4976079;28;19906;-75
2021/10/13 12:33:07;;;;;;;;;;;17.10;99.90;;;;;;4976199;28;19911;-73
2021/10/13 12:35:33;;;;;;;;;;;17.00;99.90;;;;;;4976491;28;19914;-73
2021/10/13 12:37:59;;;;;;;;;;;17.00;99.90;;;;;;4976227;28;19906;-70
2021/10/13 12:40:25;;;;;;;;;;;16.90;99.90;;;;;;4976741;28;20004;-73
2021/10/13 12:42:50;;;;;;;;;;;16.90;99.90;;;;;;4976155;28;20330;-77
2021/10/13 12:45:25;;;;;;;;;;;16.90;99.90;;;;;;4976344;28;19912;-75
2021/10/13 12:48:11;;;;;;;;;;;16.80;99.90;;;;;;4974515;28;20267;-74
2021/10/13 12:50:36;;;;;;;;;;;16.90;99.90;;;;;;4975843;28;19913;-74
2021/10/13 12:53:02;;;;;;;;;;;16.80;99.90;;;;;;4975969;28;19906;-73
2021/10/13 12:55:27;;;;;;;;;;;16.90;99.90;;;;;;4976048;28;19910;-73
2021/10/13 12:57:53;;;;;;;;;;;16.90;99.90;;;;;;4975873;28;20285;-73
2021/10/13 13:00:18;;;;;;;;;;;17.00;99.90;;;;;;4975828;28;19906;-72
2021/10/13 13:02:44;;;;;;;;;;;17.00;99.90;;;;;;4976347;28;19953;-77
2021/10/13 13:05:09;;;;;;;;;;;17.10;99.90;;;;;;4975772;28;19906;-73
2021/10/13 13:07:35;;;;;;;;;;;17.10;99.90;;;;;;4975957;28;20385;-74
2021/10/13 13:10:00;;;;;;;;;;;17.20;99.90;;;;;;4975650;28;19906;-74
2021/10/13 13:12:26;;;;;;;;;;;17.30;99.90;;;;;;4975628;28;19956;-76
2021/10/13 13:14:51;;;;;;;;;;;17.40;99.90;;;;;;4975490;28;20267;-73
2021/10/13 13:17:18;;;;;;;;;;;17.50;99.90;;;;;;4976108;28;19993;-75
2021/10/13 13:19:44;;;;;;;;;;;17.50;99.90;;;;;;4975492;28;20007;-74
2021/10/13 13:22:09;;;;;;;;;;;17.50;99.90;;;;;;4975383;28;20366;-75
2021/10/13 13:24:35;;;;;;;;;;;17.50;99.90;;;;;;4975243;28;19913;-74
2021/10/13 13:27:00;;;;;;;;;;;17.50;99.90;;;;;;4975658;28;19912;-74
2021/10/13 13:29:26;;;;;;;;;;;17.50;99.90;;;;;;4975375;28;19912;-74
2021/10/13 13:31:52;;;;;;;;;;;17.50;99.90;;;;;;4975326;28;19913;-74
2021/10/13 13:34:17;;;;;;;;;;;17.40;99.90;;;;;;4975227;28;19914;-74
2021/10/13 13:36:43;;;;;;;;;;;17.40;99.90;;;;;;4975496;28;20435;-74
2021/10/13 13:39:09;;;;;;;;;;;17.30;99.90;;;;;;4975206;28;20382;-72
2021/10/13 13:41:34;;;;;;;;;;;17.20;99.90;;;;;;4975133;28;20011;-74
2021/10/13 13:44:00;;;;;;;;;;;17.10;99.90;;;;;;4975006;28;19913;-73
2021/10/13 13:46:26;;;;;;;;;;;17.20;99.90;;;;;;4975151;28;20425;-77
2021/10/13 13:48:51;;;;;;;;;;;17.20;99.90;;;;;;4975385;28;19913;-74
2021/10/13 13:51:18;;;;;;;;;;;17.20;99.90;;;;;;4975029;28;19906;-71
2021/10/13 13:53:44;;;;;;;;;;;17.20;99.90;;;;;;4975268;28;19993;-73
2021/10/13 13:56:10;;;;;;;;;;;17.20;99.90;;;;;;4974937;28;19975;-75
2021/10/13 13:58:38;;;;;;;;;;;17.20;99.90;;;;;;4974953;28;20319;-77
2021/10/13 14:01:03;;;;;;;;;;;17.30;99.90;;;;;;4974950;28;19914;-71
2021/10/13 14:03:29;;;;;;;;;;;17.40;99.90;;;;;;4974928;28;20053;-74
2021/10/13 14:05:54;;;;;;;;;;;17.50;99.90;;;;;;4974894;28;19933;-76
2021/10/13 14:08:20;;;;;;;;;;;17.60;99.90;;;;;;4975467;28;19952;-76
2021/10/13 14:10:45;;;;;;;;;;;17.60;99.90;;;;;;4975175;28;19945;-71
2021/10/13 14:13:11;;;;;;;;;;;17.60;99.90;;;;;;4975089;28;20355;-74
2021/10/13 14:15:37;;;;;;;;;;;17.60;99.90;;;;;;4974784;28;19910;-73
2021/10/13 14:18:02;;;;;;;;;;;17.70;99.90;;;;;;4975102;28;19910;-74
2021/10/13 14:20:28;;;;;;;;;;;17.70;99.90;;;;;;4974837;28;20002;-73
2021/10/13 14:22:54;;;;;;;;;;;17.70;99.90;;;;;;4974984;28;19910;-71
2021/10/13 14:25:19;;;;;;;;;;;17.70;99.90;;;;;;4974690;28;19920;-73